North Woodmere, New York
Current Conditions -  °F | °C
As of 8:51 AM on Saturday 22 Nov 2014 (Local Time) from KJFK Reporting Station
Few Clouds Few Clouds  
Wind Chill: 22°   Ceiling: Unl
Heat Index: 32°   Visibility: 10mi
Dew Point: 11°   Wind: 15mph
Humidity: 42%   Direction: 250°WSW
Pressure: 30.5"   Gusts: NA
Location:  40.6532°N, 73.7131°W
Report Text: KJFK 221351Z 25013KT 10SM FEW260 00/M12 A3050 RMK AO2 SLP329 T00001117
Loading
Personal Weather Stations






























Interactive Weather Map New forecast layout! Learn more

10-Day Weather Forecast

Advertisements
Track Severe Weather on mobile